Time;durP1;ratioP1;P1;durP2;ratioP2;P2;SDS_P1;SDS_P2;PMS_P1;PMS_P2;Temp;Humidity;BMP_temperature;BMP_pressure;BME280_temperature;BME280_humidity;BME280_pressure;Samples;Min_cycle;Max_cycle;Signal;HPM_P1;HPM_P2
2023/04/05 00:02:19;;;;;;;3.87;2.37;;;;;;;-1.91;85.30;97108.84;10410884;28;20200;-74
2023/04/05 00:07:20;;;;;;;4.17;2.43;;;;;;;-1.94;84.59;97097.88;10411078;28;20219;-74
2023/04/05 00:12:20;;;;;;;3.87;2.03;;;;;;;-1.90;84.96;97096.81;10392662;28;20208;-75
2023/04/05 00:17:21;;;;;;;6.20;2.50;;;;;;;-1.88;85.10;97092.47;10409991;28;20272;-74
2023/04/05 00:22:24;;;;;;;8.73;2.13;;;;;;;-1.86;85.02;97096.59;10392666;28;20196;-74
2023/04/05 00:27:25;;;;;;;2.93;2.20;;;;;;;-1.88;85.39;97092.47;10409794;28;20276;-74
2023/04/05 00:32:25;;;;;;;4.03;2.03;;;;;;;-1.89;84.67;97075.38;10409799;28;20195;-74
2023/04/05 00:37:26;;;;;;;2.27;1.73;;;;;;;-1.79;84.33;97061.22;10408459;28;20242;-75
2023/04/05 00:42:26;;;;;;;4.93;2.00;;;;;;;-1.65;83.92;97065.72;10391130;28;20213;-74
2023/04/05 00:47:26;;;;;;;2.17;1.90;;;;;;;-1.73;83.96;97053.25;10391887;28;20464;-75
2023/04/05 00:52:29;;;;;;;4.10;1.90;;;;;;;-1.75;83.92;97055.03;10391465;28;20189;-75
2023/04/05 00:57:29;;;;;;;2.83;1.80;;;;;;;-1.72;83.78;97047.19;10374886;28;20224;-74
2023/04/05 01:02:38;;;;;;;6.90;2.40;;;;;;;-1.69;84.43;97052.16;10389762;28;20619;-75
2023/04/05 01:07:50;;;;;;;9.07;4.90;;;;;;;-1.75;84.38;97049.06;10375107;28;20185;-75
2023/04/05 01:12:50;;;;;;;5.33;3.30;;;;;;;-1.74;84.12;97051.56;10407217;28;20280;-74
2023/04/05 01:17:52;;;;;;;6.87;3.77;;;;;;;-1.74;83.62;97032.75;10408490;28;20220;-74
2023/04/05 01:23:19;;;;;;;2.87;2.63;;;;;;;-1.73;83.28;97035.25;10408268;28;20688;-74
2023/04/05 01:28:40;;;;;;;3.97;1.90;;;;;;;-1.72;84.16;97033.50;10407801;28;20176;-74
2023/04/05 01:33:49;;;;;;;2.27;1.80;;;;;;;-1.68;84.58;97040.19;10449289;28;20238;-74
2023/04/05 01:38:50;;;;;;;6.00;2.00;;;;;;;-1.68;85.08;97047.88;10450579;28;20635;-74
2023/04/05 01:43:50;;;;;;;5.13;2.30;;;;;;;-1.72;84.64;97029.19;10439349;28;20211;-75
2023/04/05 01:48:50;;;;;;;3.43;1.57;;;;;;;-1.74;84.56;97018.19;10457790;28;20176;-74
2023/04/05 01:53:51;;;;;;;3.70;1.70;;;;;;;-1.73;85.37;97029.28;10456952;28;20190;-74
2023/04/05 01:58:51;;;;;;;2.63;1.80;;;;;;;-1.68;85.10;97022.19;10456817;28;20725;-75
2023/04/05 02:03:52;;;;;;;2.23;2.00;;;;;;;-1.72;84.24;97015.53;10439745;28;20562;-74
2023/04/05 02:08:53;;;;;;;6.17;1.87;;;;;;;-1.65;85.15;97029.75;10456237;28;20190;-75
2023/04/05 02:13:53;;;;;;;4.43;2.20;;;;;;;-1.64;84.58;97028.84;10439570;28;20192;-74
2023/04/05 02:18:56;;;;;;;3.07;1.63;;;;;;;-1.54;84.30;97024.94;10438066;28;20246;-74
2023/04/05 02:23:56;;;;;;;4.53;1.80;;;;;;;-1.61;84.50;97018.41;10438962;28;20184;-74
2023/04/05 02:28:57;;;;;;;3.63;2.00;;;;;;;-1.61;84.52;97018.41;10455848;28;20203;-74
2023/04/05 02:33:59;;;;;;;1.83;1.60;;;;;;;-1.64;84.77;97021.13;10456159;28;20274;-74
2023/04/05 02:39:00;;;;;;;5.03;1.87;;;;;;;-1.55;84.18;97009.59;10455169;28;20228;-74
2023/04/05 02:44:00;;;;;;;5.87;2.03;;;;;;;-1.59;83.83;97002.91;10437252;28;20239;-75
2023/04/05 02:49:04;;;;;;;5.40;2.33;;;;;;;-1.63;84.49;97010.78;10414770;28;20189;-74
2023/04/05 02:54:06;;;;;;;4.57;1.93;;;;;;;-1.63;86.10;97030.50;10395622;28;20649;-74
2023/04/05 02:59:09;;;;;;;5.87;2.13;;;;;;;-1.66;86.04;97028.09;10394843;28;20303;-74
2023/04/05 03:04:16;;;;;;;4.00;2.63;;;;;;;-1.75;86.30;97026.78;10410645;28;20192;-74
2023/04/05 03:09:16;;;;;;;2.53;2.00;;;;;;;-1.88;86.84;97033.41;10429898;28;20564;-75
2023/04/05 03:14:17;;;;;;;4.00;2.00;;;;;;;-1.68;86.34;97023.03;10429275;28;20195;-74
2023/04/05 03:19:21;;;;;;;5.27;2.07;;;;;;;-1.63;85.98;97018.47;10429630;28;20224;-74
2023/04/05 03:24:23;;;;;;;2.30;1.80;;;;;;;-1.59;86.80;97026.91;10429065;28;20191;-75
2023/04/05 03:29:24;;;;;;;3.40;1.90;;;;;;;-1.71;87.79;97032.63;10427421;28;20180;-74
2023/04/05 03:34:27;;;;;;;2.20;1.70;;;;;;;-1.70;88.54;97029.97;10428159;28;20196;-74
2023/04/05 03:39:28;;;;;;;3.43;1.80;;;;;;;-1.75;87.31;97018.25;10427033;28;20232;-74
2023/04/05 03:44:29;;;;;;;2.20;1.77;;;;;;;-1.69;87.20;97016.22;10428070;28;20194;-74
2023/04/05 03:49:30;;;;;;;4.97;1.80;;;;;;;-1.64;87.66;97018.56;10396588;28;20193;-75
2023/04/05 03:54:31;;;;;;;1.50;1.40;;;;;;;-1.67;87.76;97021.28;10404578;28;20200;-75
2023/04/05 03:59:33;;;;;;;1.80;1.60;;;;;;;-1.57;87.32;97017.38;10403201;28;20591;-74
2023/04/05 04:04:35;;;;;;;2.07;1.77;;;;;;;-1.63;87.71;97020.22;10408462;28;20280;-74
2023/04/05 04:09:36;;;;;;;2.77;2.10;;;;;;;-1.73;87.36;97021.56;10392666;28;20188;-74
2023/04/05 04:14:42;;;;;;;2.97;1.80;;;;;;;-1.62;87.57;97032.19;10393485;28;20185;-74
2023/04/05 04:20:07;;;;;;;2.50;1.70;;;;;;;-1.57;87.43;97011.41;10391867;28;20594;-74
2023/04/05 04:25:19;;;;;;;3.47;2.50;;;;;;;-1.51;88.24;97032.50;10392624;28;20238;-75
2023/04/05 04:30:49;;;;;;;5.30;2.03;;;;;;;-1.57;89.44;97037.09;10391862;28;20276;-74
2023/04/05 04:36:12;;;;;;;3.50;2.20;;;;;;;-1.65;89.37;97037.47;10394585;28;20303;-74
2023/04/05 04:41:54;;;;;;;2.87;1.77;;;;;;;-1.60;89.38;97027.78;10391452;28;20216;-74
2023/04/05 04:47:12;;;;;;;2.30;1.90;;;;;;;-1.78;89.52;97026.09;10408024;28;20208;-74
2023/04/05 04:52:39;;;;;;;3.07;1.93;;;;;;;-1.63;89.00;97025.38;10391231;28;20192;-74
2023/04/05 04:57:41;;;;;;;3.77;2.20;;;;;;;-1.66;89.33;97020.38;10408824;28;20220;-74
2023/04/05 05:02:42;;;;;;;5.77;2.70;;;;;;;-1.62;89.72;97029.63;10409190;28;20251;-75
2023/04/05 05:07:43;;;;;;;3.60;2.40;;;;;;;-1.64;90.45;97044.25;10422957;28;20651;-74
2023/04/05 05:12:43;;;;;;;3.23;2.00;;;;;;;-1.58;90.42;97038.00;10434896;28;20282;-75
2023/04/05 05:17:46;;;;;;;3.90;1.93;;;;;;;-1.47;90.65;97044.28;10430677;28;20246;-75
2023/04/05 05:22:47;;;;;;;3.93;2.13;;;;;;;-1.42;89.96;97043.22;10449530;28;20290;-75
2023/04/05 05:27:49;;;;;;;4.40;2.10;;;;;;;-1.47;89.53;97039.16;10449668;28;20180;-75
2023/04/05 05:32:51;;;;;;;4.73;2.57;;;;;;;-1.36;89.20;97023.22;10449075;28;20222;-75
2023/04/05 05:37:51;;;;;;;2.43;2.00;;;;;;;-1.25;88.38;97030.38;10430929;28;20242;-75
2023/04/05 05:42:52;;;;;;;5.53;2.23;;;;;;;-1.15;88.45;97020.47;10449329;28;20227;-75
2023/04/05 05:47:52;;;;;;;4.63;2.33;;;;;;;-0.97;88.94;97032.41;10448283;28;20187;-74
2023/04/05 05:52:53;;;;;;;4.90;2.20;;;;;;;-0.92;89.03;97033.03;10449189;28;20191;-74
2023/04/05 05:57:53;;;;;;;4.80;2.30;;;;;;;0.24;84.70;96974.56;10448391;28;20587;-75
2023/04/05 06:02:54;;;;;;;3.73;2.30;;;;;;;1.21;78.52;96912.19;10448623;28;20195;-75
2023/04/05 06:07:54;;;;;;;8.50;2.67;;;;;;;2.38;72.41;96845.38;10422514;28;20267;-75
2023/04/05 06:12:54;;;;;;;5.00;2.70;;;;;;;0.56;73.09;96854.16;10388064;28;20250;-75
2023/04/05 06:17:55;;;;;;;4.50;2.80;;;;;;;2.54;69.24;96821.06;10407063;28;20231;-75
2023/04/05 06:22:55;;;;;;;9.13;3.40;;;;;;;3.44;62.98;96732.84;10373067;28;20224;-75
2023/04/05 06:27:56;;;;;;;6.23;3.03;;;;;;;4.64;59.67;96710.88;10413444;28;20657;-75
2023/04/05 06:32:56;;;;;;;7.03;3.00;;;;;;;4.65;58.63;96707.34;10401243;28;20559;-75
2023/04/05 06:37:57;;;;;;;3.97;2.60;;;;;;;2.67;62.47;96757.22;10431019;28;20775;-75
2023/04/05 06:42:57;;;;;;;8.27;3.67;;;;;;;3.91;61.57;96773.38;10432746;28;20208;-75
2023/04/05 06:48:02;;;;;;;7.17;2.87;;;;;;;4.18;59.97;96751.56;10383771;28;20679;-75
2023/04/05 06:53:03;;;;;;;4.70;2.50;;;;;;;5.58;56.99;96723.38;10446756;28;20195;-76
2023/04/05 06:58:04;;;;;;;6.57;2.43;;;;;;;6.39;54.25;96682.00;10450465;28;20216;-76
2023/04/05 07:03:05;;;;;;;6.93;2.60;;;;;;;4.94;57.04;96732.78;10452948;28;20192;-75
2023/04/05 07:08:05;;;;;;;5.27;3.17;;;;;;;5.83;55.68;96723.00;10453385;28;20195;-75
2023/04/05 07:13:06;;;;;;;8.33;3.07;;;;;;;7.34;52.47;96679.88;10452252;28;20465;-75
2023/04/05 07:18:07;;;;;;;6.80;2.70;;;;;;;7.11;52.42;96690.53;10450742;28;20692;-75
2023/04/05 07:23:07;;;;;;;7.10;2.30;;;;;;;7.60;49.58;96639.22;10451774;28;20584;-75
2023/04/05 07:28:07;;;;;;;3.37;2.30;;;;;;;7.84;50.11;96674.44;10450580;28;20196;-76
2023/04/05 07:33:08;;;;;;;6.43;2.53;;;;;;;7.89;47.64;96599.22;10450937;28;20554;-76
2023/04/05 07:38:10;;;;;;;7.07;3.43;;;;;;;8.41;48.55;96656.16;10450944;28;20716;-75
2023/04/05 07:43:10;;;;;;;9.00;3.43;;;;;;;8.69;48.21;96664.84;10451042;28;20239;-75
2023/04/05 07:48:10;;;;;;;8.90;3.50;;;;;;;9.19;46.18;96623.53;10450897;28;20318;-76
2023/04/05 07:53:11;;;;;;;8.23;3.67;;;;;;;9.51;45.20;96612.53;10451485;28;20200;-75
2023/04/05 07:58:11;;;;;;;7.37;3.67;;;;;;;7.16;50.58;96674.50;10449303;28;20211;-74
2023/04/05 08:03:12;;;;;;;7.90;3.30;;;;;;;6.27;50.21;96641.44;10450060;28;20231;-75
2023/04/05 08:08:12;;;;;;;3.47;2.83;;;;;;;6.64;50.09;96662.47;10434097;28;20188;-75
2023/04/05 08:13:12;;;;;;;8.00;3.53;;;;;;;6.30;51.37;96688.00;10410077;28;20304;-75
2023/04/05 08:18:13;;;;;;;5.83;3.23;;;;;;;5.35;53.32;96702.69;10424820;28;20302;-75
2023/04/05 08:23:13;;;;;;;6.07;3.37;;;;;;;5.63;53.02;96722.03;10425126;28;20604;-75
2023/04/05 08:28:14;;;;;;;5.83;3.33;;;;;;;6.29;52.15;96707.16;10426270;28;20569;-75
2023/04/05 08:33:14;;;;;;;5.90;2.90;;;;;;;6.40;51.69;96705.28;10425150;28;20723;-76
2023/04/05 08:38:15;;;;;;;8.40;3.13;;;;;;;6.36;51.75;96690.88;10424808;28;20223;-76
2023/04/05 08:43:31;;;;;;;10.33;4.60;;;;;;;6.51;52.00;96708.72;10426994;28;20223;-75
2023/04/05 08:48:34;;;;;;;9.10;4.57;;;;;;;6.06;53.68;96744.56;10423959;28;20263;-76
2023/04/05 08:53:35;;;;;;;6.00;3.00;;;;;;;7.86;48.19;96657.72;10406844;28;20303;-74
2023/04/05 08:58:36;;;;;;;7.60;4.60;;;;;;;8.75;48.22;96686.94;10422694;28;20212;-73
2023/04/05 09:03:39;;;;;;;7.03;3.20;;;;;;;7.03;48.59;96640.88;10431058;28;20195;-73
2023/04/05 09:08:40;;;;;;;5.30;3.10;;;;;;;7.43;47.83;96645.16;10427855;28;20212;-73
2023/04/05 09:13:40;;;;;;;7.30;4.00;;;;;;;8.48;48.25;96677.31;10447264;28;20808;-73
2023/04/05 09:18:41;;;;;;;5.43;3.30;;;;;;;8.00;47.89;96666.06;10446157;28;20224;-75
2023/04/05 09:23:50;;;;;;;5.37;3.33;;;;;;;7.59;48.03;96649.81;10449158;28;20199;-76
2023/04/05 09:28:51;;;;;;;5.53;2.80;;;;;;;6.76;50.69;96691.84;10448806;28;20298;-76
2023/04/05 09:33:51;;;;;;;4.60;2.70;;;;;;;8.40;47.75;96664.94;10448467;28;20286;-76
2023/04/05 09:38:52;;;;;;;5.57;3.00;;;;;;;7.49;45.99;96598.50;10426428;28;20239;-76
2023/04/05 09:43:52;;;;;;;7.33;3.00;;;;;;;9.52;45.11;96642.94;10425218;28;20204;-77
2023/04/05 09:48:52;;;;;;;7.55;3.10;;;;;;;9.06;46.08;96644.81;10397275;28;20195;-76
2023/04/05 09:54:09;;;;;;;4.60;2.72;;;;;;;8.29;48.13;96678.19;10404600;28;20224;-76
2023/04/05 09:59:11;;;;;;;8.05;3.10;;;;;;;8.21;46.73;96627.53;10405773;28;20295;-75
2023/04/05 10:04:11;;;;;;;4.70;3.10;;;;;;;7.41;49.28;96678.34;10421158;28;20204;-76
2023/04/05 10:09:13;;;;;;;5.87;3.43;;;;;;;6.00;52.75;96713.84;10456416;28;20207;-76
2023/04/05 10:14:15;;;;;;;5.77;2.90;;;;;;;6.57;51.04;96695.19;10479843;28;20196;-76
2023/04/05 10:19:24;;;;;;;3.77;2.77;;;;;;;6.18;53.63;96767.88;10456919;28;20222;-76
2023/04/05 10:24:58;;;;;;;6.63;3.07;;;;;;;6.38;53.01;96754.00;10452673;28;20282;-76
2023/04/05 10:30:07;;;;;;;6.57;2.97;;;;;;;5.81;54.18;96745.69;10455634;28;20608;-76
2023/04/05 10:35:16;;;;;;;5.07;2.87;;;;;;;6.24;53.70;96755.19;10453666;28;20188;-76
2023/04/05 10:40:20;;;;;;;9.63;4.53;;;;;;;5.47;55.59;96760.63;10452800;28;20224;-76
2023/04/05 10:45:21;;;;;;;4.13;2.67;;;;;;;6.62;51.86;96724.28;10453658;28;20196;-76
2023/04/05 10:50:23;;;;;;;6.07;2.50;;;;;;;7.10;48.88;96650.63;10435314;28;20709;-75
2023/04/05 10:55:23;;;;;;;4.77;2.37;;;;;;;7.17;50.46;96689.16;10453221;28;20210;-77
2023/04/05 11:00:25;;;;;;;6.20;2.63;;;;;;;7.78;48.37;96659.38;10433847;28;20230;-77
2023/04/05 11:05:36;;;;;;;4.30;2.90;;;;;;;7.95;49.91;96696.97;10434340;28;20200;-76
2023/04/05 11:10:37;;;;;;;5.17;2.53;;;;;;;8.06;48.61;96673.31;10432416;28;20191;-76
2023/04/05 11:15:38;;;;;;;6.50;2.90;;;;;;;7.48;52.25;96736.78;10453633;28;20188;-77
2023/04/05 11:20:54;;;;;;;6.93;2.50;;;;;;;8.28;48.12;96661.69;10450674;28;20220;-77
2023/04/05 11:26:05;;;;;;;6.60;2.87;;;;;;;8.35;47.26;96631.44;10451526;28;20659;-76
2023/04/05 11:31:52;;;;;;;7.07;3.10;;;;;;;7.58;49.70;96655.97;10443731;28;20267;-77
2023/04/05 11:36:55;;;;;;;3.83;2.70;;;;;;;8.10;47.69;96626.88;10407320;28;20432;-77
2023/04/05 11:42:08;;;;;;;6.00;2.77;;;;;;;8.54;46.44;96609.66;10434020;28;20227;-77
2023/04/05 11:47:10;;;;;;;6.00;3.20;;;;;;;8.54;46.97;96619.28;10450056;28;20195;-79
2023/04/05 11:52:15;;;;;;;3.10;2.20;;;;;;;8.70;50.20;96710.09;10448590;28;20193;-76
2023/04/05 11:57:21;;;;;;;3.57;2.20;;;;;;;9.15;46.46;96611.75;10432225;28;20242;-78
2023/04/05 12:02:21;;;;;;;4.63;2.87;;;;;;;10.20;44.74;96614.41;10409372;28;20612;-77
2023/04/05 12:07:25;;;;;;;9.70;2.50;;;;;;;10.26;44.10;96591.06;10399362;28;20284;-77
2023/04/05 12:12:25;;;;;;;3.17;2.10;;;;;;;11.34;43.62;96613.09;10420391;28;20196;-77
2023/04/05 12:17:39;;;;;;;7.20;2.88;;;;;;;11.40;44.01;96615.06;10448609;28;20665;-79
2023/04/05 12:22:41;;;;;;;5.82;3.03;;;;;;;11.42;44.20;96616.53;10447663;28;20208;-79
2023/04/05 12:27:41;;;;;;;7.78;2.70;;;;;;;10.50;43.74;96582.47;10425286;28;20207;-77
2023/04/05 12:32:55;;;;;;;3.22;2.05;;;;;;;10.18;42.64;96543.88;10447340;28;20206;-78
2023/04/05 12:37:56;;;;;;;6.95;2.30;;;;;;;9.98;41.13;96498.81;10429404;28;20730;-77
2023/04/05 12:43:18;;;;;;;3.53;2.25;;;;;;;9.32;43.01;96521.22;10406927;28;20220;-78
2023/04/05 12:48:21;;;;;;;3.15;2.20;;;;;;;9.29;43.50;96535.41;10405531;28;20203;-77
2023/04/05 12:53:24;;;;;;;7.03;2.60;;;;;;;8.11;50.14;96665.06;10388597;28;20216;-77
2023/04/05 12:58:36;;;;;;;3.87;2.67;;;;;;;5.98;55.68;96749.53;10405592;28;20235;-78
2023/04/05 13:03:37;;;;;;;3.70;2.63;;;;;;;5.71;58.79;96809.78;10406421;28;20611;-79
2023/04/05 13:08:37;;;;;;;3.77;2.60;;;;;;;5.58;58.85;96796.94;10407127;28;20223;-78
2023/04/05 13:13:37;;;;;;;6.37;2.77;;;;;;;5.41;61.55;96862.44;10407890;28;20200;-78
2023/04/05 13:18:38;;;;;;;3.67;2.63;;;;;;;5.27;62.05;96855.72;10447319;28;20349;-77
2023/04/05 13:23:38;;;;;;;4.27;2.97;;;;;;;5.27;60.04;96804.59;10430787;28;20192;-79
2023/04/05 13:28:39;;;;;;;5.03;2.73;;;;;;;5.61;57.75;96755.13;10411587;28;20341;-78
2023/04/05 13:33:39;;;;;;;5.83;2.63;;;;;;;5.90;57.87;96773.53;10447019;28;20211;-78
2023/04/05 13:38:40;;;;;;;3.73;2.37;;;;;;;5.89;58.64;96786.66;10446373;28;20236;-77
2023/04/05 13:43:40;;;;;;;4.93;2.63;;;;;;;5.60;58.99;96771.66;10447357;28;20311;-77
2023/04/05 13:55:07;;;;;;;8.90;2.60;;;;;;;6.74;55.06;96719.81;10446857;28;20579;-75
2023/04/05 14:00:08;;;;;;;4.23;2.90;;;;;;;7.28;54.06;96694.25;10446920;28;20231;-74
2023/04/05 14:05:15;;;;;;;6.87;2.60;;;;;;;6.73;55.30;96698.13;10446315;28;20200;-76
2023/04/05 14:10:16;;;;;;;5.10;2.90;;;;;;;7.24;54.48;96709.34;10447015;28;20199;-76
2023/04/05 14:15:17;;;;;;;3.30;2.80;;;;;;;7.82;52.81;96674.59;10446489;28;20207;-76
2023/04/05 14:20:17;;;;;;;3.87;2.80;;;;;;;7.32;52.79;96648.75;10445309;28;20216;-77
2023/04/05 14:25:17;;;;;;;6.13;2.93;;;;;;;6.95;54.11;96678.88;10446531;28;20698;-76
2023/04/05 14:30:19;;;;;;;5.67;2.80;;;;;;;6.99;55.80;96713.28;10444376;28;20257;-75
2023/04/05 14:35:19;;;;;;;4.63;2.60;;;;;;;8.45;51.14;96643.66;10445893;28;20202;-76
2023/04/05 14:40:19;;;;;;;3.47;2.50;;;;;;;10.08;46.55;96593.75;10421826;28;20243;-76
2023/04/05 14:45:22;;;;;;;8.67;3.17;;;;;;;9.56;46.08;96560.59;10406740;28;20295;-76
2023/04/05 14:50:22;;;;;;;8.23;3.23;;;;;;;9.18;47.36;96564.41;10429222;28;20185;-76
2023/04/05 14:55:22;;;;;;;3.37;2.33;;;;;;;8.84;49.54;96627.78;10428733;28;20212;-77
2023/04/05 15:00:23;;;;;;;4.63;2.30;;;;;;;8.08;50.18;96608.75;10412895;28;20633;-76
2023/04/05 15:05:23;;;;;;;3.80;2.23;;;;;;;7.50;52.83;96667.09;10411785;28;20576;-77
2023/04/05 15:10:23;;;;;;;2.77;2.23;;;;;;;8.32;49.64;96604.81;10412565;28;20193;-76
2023/04/05 15:15:24;;;;;;;2.40;2.00;;;;;;;9.01;48.86;96605.25;10427227;28;20288;-77
2023/04/05 15:20:25;;;;;;;2.92;1.92;;;;;;;10.80;45.82;96577.66;10411898;28;20251;-76
2023/04/05 15:25:25;;;;;;;3.40;2.35;;;;;;;11.34;42.77;96516.06;10411483;28;20258;-78
2023/04/05 15:30:26;;;;;;;3.90;2.17;;;;;;;12.26;42.46;96531.41;10411072;28;20195;-76
2023/04/05 15:35:26;;;;;;;3.17;2.30;;;;;;;12.40;44.26;96592.91;10410239;28;20188;-76
2023/04/05 15:40:28;;;;;;;6.32;2.28;;;;;;;12.32;45.53;96612.94;10442661;28;20232;-77
2023/04/05 15:45:28;;;;;;;3.88;2.47;;;;;;;11.45;47.36;96640.81;10450923;28;20253;-77
2023/04/05 15:50:28;;;;;;;2.65;2.40;;;;;;;12.96;45.20;96626.97;10450862;28;20183;-77
2023/04/05 15:55:29;;;;;;;4.22;2.55;;;;;;;12.64;43.09;96552.53;10450344;28;20280;-77
2023/04/05 16:00:31;;;;;;;3.70;2.42;;;;;;;12.49;42.87;96536.69;10448966;28;20219;-77
2023/04/05 16:05:31;;;;;;;4.65;2.08;;;;;;;12.26;44.11;96565.53;10449976;28;20187;-77
2023/04/05 16:10:32;;;;;;;3.63;2.35;;;;;;;11.29;44.18;96553.28;10450883;28;20293;-76
2023/04/05 16:15:32;;;;;;;2.85;2.33;;;;;;;11.95;43.87;96555.81;10449765;28;20797;-76
2023/04/05 16:20:32;;;;;;;2.50;2.22;;;;;;;13.24;41.32;96534.38;10451149;28;20678;-75
2023/04/05 16:25:33;;;;;;;4.05;2.03;;;;;;;14.22;38.00;96461.41;10451593;28;20577;-75
2023/04/05 16:30:33;;;;;;;6.75;2.10;;;;;;;15.26;35.92;96426.66;10451229;28;21066;-76
2023/04/05 16:35:33;;;;;;;2.90;1.98;;;;;;;14.72;36.14;96427.28;10451206;28;20564;-75
2023/04/05 16:40:34;;;;;;;4.38;2.10;;;;;;;12.99;37.89;96429.38;10442817;28;20262;-75
2023/04/05 16:45:35;;;;;;;2.85;2.38;;;;;;;10.33;42.42;96466.38;10450038;28;20604;-75
2023/04/05 16:50:36;;;;;;;3.65;2.15;;;;;;;7.66;47.90;96525.75;10450521;28;20276;-75
2023/04/05 16:55:36;;;;;;;4.33;3.07;;;;;;;6.18;53.22;96638.63;10450279;28;20664;-75
2023/04/05 17:00:37;;;;;;;4.17;3.30;;;;;;;5.36;57.27;96691.34;10450519;28;20188;-75
2023/04/05 17:06:24;;;;;;;5.13;2.63;;;;;;;4.49;59.26;96717.25;10451069;28;20310;-76
2023/04/05 17:11:27;;;;;;;3.03;2.53;;;;;;;3.52;62.71;96775.38;10412645;28;20266;-75
2023/04/05 17:16:27;;;;;;;11.27;6.00;;;;;;;2.03;69.00;96866.59;10439234;28;20203;-75
2023/04/05 17:21:27;;;;;;;30.37;9.70;;;;;;;1.19;72.18;96883.91;10439355;28;20683;-74
2023/04/05 17:26:28;;;;;;;9.07;5.60;;;;;;;1.39;73.16;96890.44;10439968;28;20597;-75
2023/04/05 17:31:29;;;;;;;21.43;8.00;;;;;;;0.53;76.61;96904.16;10440090;28;20749;-75
2023/04/05 17:36:30;;;;;;;8.67;5.40;;;;;;;0.53;78.21;96896.41;10422254;28;20571;-75
2023/04/05 17:41:30;;;;;;;17.53;7.83;;;;;;;0.09;79.82;96893.84;10439900;28;20313;-75
2023/04/05 17:46:31;;;;;;;4.53;3.23;;;;;;;-0.30;82.44;96905.47;10439669;28;20428;-75
2023/04/05 17:51:31;;;;;;;9.93;4.83;;;;;;;-0.27;83.20;96892.41;10424117;28;20311;-75
2023/04/05 17:56:31;;;;;;;9.30;4.77;;;;;;;-0.27;84.53;96900.97;10447477;28;20192;-75
2023/04/05 18:01:32;;;;;;;7.67;4.60;;;;;;;-0.47;86.50;96917.50;10434985;28;20188;-75
2023/04/05 18:06:32;;;;;;;8.00;4.40;;;;;;;-0.55;88.89;96922.25;10422657;28;20597;-76
2023/04/05 18:11:32;;;;;;;12.13;4.03;;;;;;;-0.61;90.56;96925.13;10424516;28;20748;-76
2023/04/05 18:16:33;;;;;;;6.47;3.87;;;;;;;-0.67;91.15;96923.72;10432783;28;20942;-76
2023/04/05 18:21:33;;;;;;;6.97;4.50;;;;;;;-0.74;92.35;96938.63;10417221;28;20761;-76
2023/04/05 18:26:34;;;;;;;9.03;5.90;;;;;;;-0.76;92.96;96942.22;10423182;28;20200;-76
2023/04/05 18:31:34;;;;;;;9.20;5.13;;;;;;;-0.74;93.10;96935.22;10428665;28;20219;-76
2023/04/05 18:36:38;;;;;;;10.70;5.93;;;;;;;-0.80;93.71;96938.94;10428851;28;20279;-76
2023/04/05 18:41:38;;;;;;;7.27;4.47;;;;;;;-0.87;93.81;96947.91;10409822;28;20239;-76
2023/04/05 18:46:39;;;;;;;6.10;3.87;;;;;;;-0.89;95.45;96949.72;10434619;28;20631;-75
2023/04/05 18:51:39;;;;;;;9.57;4.73;;;;;;;-1.03;96.21;96957.31;10411190;28;20688;-76
2023/04/05 18:56:40;;;;;;;8.83;5.07;;;;;;;-1.05;96.96;96959.97;10425578;28;20678;-75
2023/04/05 19:01:40;;;;;;;10.37;5.80;;;;;;;-0.93;97.33;96950.81;10427459;28;20274;-75
2023/04/05 19:06:40;;;;;;;5.97;3.00;;;;;;;-0.95;97.39;96950.03;10430021;28;20533;-75
2023/04/05 19:11:41;;;;;;;7.10;4.20;;;;;;;-0.98;98.19;96957.91;10424081;28;20693;-76
2023/04/05 19:16:41;;;;;;;7.87;4.60;;;;;;;-1.05;99.02;96959.16;10425370;28;20619;-76
2023/04/05 19:21:41;;;;;;;8.07;3.90;;;;;;;-1.06;99.67;96960.88;10411704;28;20423;-75
2023/04/05 19:26:42;;;;;;;7.40;3.97;;;;;;;-0.90;99.62;96959.19;10409752;28;20220;-75
2023/04/05 19:31:43;;;;;;;9.13;4.80;;;;;;;-0.83;99.62;96961.44;10407586;28;20216;-75
2023/04/05 19:36:43;;;;;;;7.00;4.30;;;;;;;-0.89;100.00;96954.88;10407941;28;20192;-75
2023/04/05 19:41:44;;;;;;;10.60;5.17;;;;;;;-0.84;99.75;96955.47;10408560;28;20217;-75
2023/04/05 19:46:44;;;;;;;8.37;4.87;;;;;;;-0.82;99.36;96951.06;10417353;28;20288;-75
2023/04/05 19:51:45;;;;;;;6.73;3.90;;;;;;;-0.73;99.04;96950.59;10425817;28;20211;-75
2023/04/05 19:56:46;;;;;;;7.73;4.47;;;;;;;-0.59;99.74;96954.19;10409400;28;20196;-75
2023/04/05 20:01:46;;;;;;;5.83;3.90;;;;;;;-0.68;100.00;96949.53;10433447;28;20241;-76
2023/04/05 20:07:02;;;;;;;6.50;3.70;;;;;;;-0.62;100.00;96959.50;10423115;28;20215;-76
2023/04/05 20:12:05;;;;;;;7.63;4.00;;;;;;;-0.55;99.68;96950.53;10422293;28;20228;-75
2023/04/05 20:17:06;;;;;;;8.03;3.70;;;;;;;-0.61;99.43;96941.41;10424160;28;20223;-76
2023/04/05 20:22:07;;;;;;;5.73;3.80;;;;;;;-0.60;99.21;96932.78;10429468;28;20998;-75
2023/04/05 20:27:11;;;;;;;10.57;3.87;;;;;;;-0.55;98.60;96928.19;10424079;28;20196;-75
2023/04/05 20:32:11;;;;;;;7.93;4.17;;;;;;;-0.55;98.39;96929.97;10406410;28;20228;-75
2023/04/05 20:37:12;;;;;;;7.07;3.60;;;;;;;-0.50;98.31;96933.09;10407471;28;20219;-75
2023/04/05 20:42:12;;;;;;;5.10;3.53;;;;;;;-0.58;99.03;96930.94;10425099;28;20223;-75
2023/04/05 20:47:13;;;;;;;5.67;3.93;;;;;;;-0.61;99.68;96932.88;10445424;28;20279;-76
2023/04/05 20:52:14;;;;;;;8.57;3.90;;;;;;;-0.70;100.00;96935.91;10447295;28;20257;-75
2023/04/05 20:57:14;;;;;;;5.40;3.20;;;;;;;-0.68;100.00;96932.34;10451081;28;20210;-76
2023/04/05 21:02:15;;;;;;;7.57;3.83;;;;;;;-0.74;100.00;96922.38;10449939;28;20192;-75
2023/04/05 21:07:16;;;;;;;7.23;3.20;;;;;;;-0.83;100.00;96931.41;10450601;28;20286;-76
2023/04/05 21:12:16;;;;;;;4.60;3.40;;;;;;;-0.83;100.00;96933.97;10449905;28;20570;-76
2023/04/05 21:17:17;;;;;;;4.60;3.60;;;;;;;-0.98;100.00;96932.19;10450284;28;20184;-75
2023/04/05 21:22:17;;;;;;;6.07;3.80;;;;;;;-1.01;100.00;96935.78;10450449;28;20203;-75
2023/04/05 21:27:17;;;;;;;6.43;3.53;;;;;;;-1.04;100.00;96929.94;10449478;28;20188;-75
2023/04/05 21:32:18;;;;;;;5.57;3.47;;;;;;;-1.14;100.00;96919.31;10450919;28;20187;-75
2023/04/05 21:37:18;;;;;;;6.90;3.70;;;;;;;-1.20;100.00;96923.03;10450238;28;20238;-75
2023/04/05 21:42:19;;;;;;;6.80;3.80;;;;;;;-1.21;100.00;96926.53;10451034;28;20326;-75
2023/04/05 21:47:19;;;;;;;11.53;4.03;;;;;;;-1.27;100.00;96925.09;10449796;28;20211;-75
2023/04/05 21:52:20;;;;;;;12.67;4.17;;;;;;;-1.34;100.00;96918.59;10450651;28;20742;-75
2023/04/05 21:57:21;;;;;;;7.17;4.03;;;;;;;-1.46;100.00;96916.63;10454133;28;20250;-75
2023/04/05 22:02:21;;;;;;;6.57;3.70;;;;;;;-1.56;100.00;96911.16;10458615;28;20192;-75
2023/04/05 22:07:21;;;;;;;6.37;3.37;;;;;;;-1.67;100.00;96911.69;10458935;28;20278;-74
2023/04/05 22:12:22;;;;;;;8.13;4.00;;;;;;;-1.77;100.00;96915.59;10458325;28;20195;-73
2023/04/05 22:17:22;;;;;;;6.10;3.30;;;;;;;-1.86;100.00;96909.16;10458608;28;20227;-76
2023/04/05 22:22:23;;;;;;;6.97;3.30;;;;;;;-1.95;100.00;96914.75;10458200;28;20192;-75
2023/04/05 22:27:23;;;;;;;6.27;3.10;;;;;;;-2.00;100.00;96909.84;10457850;28;20664;-75
2023/04/05 22:32:23;;;;;;;7.73;2.97;;;;;;;-2.12;100.00;96899.34;10457638;28;20633;-75
2023/04/05 22:37:24;;;;;;;5.97;3.13;;;;;;;-2.12;100.00;96899.34;10457641;28;20639;-74
2023/04/05 22:42:24;;;;;;;7.00;2.80;;;;;;;-2.23;100.00;96897.28;10456961;28;20699;-74
2023/04/05 22:47:24;;;;;;;4.77;2.53;;;;;;;-2.35;100.00;96899.53;10456998;28;20560;-74
2023/04/05 22:52:25;;;;;;;3.20;2.30;;;;;;;-2.41;100.00;96893.84;10457011;28;20249;-74
2023/04/05 22:57:25;;;;;;;4.00;2.77;;;;;;;-2.48;100.00;96893.31;10456817;28;20733;-74
2023/04/05 23:02:28;;;;;;;3.43;2.73;;;;;;;-2.53;100.00;96885.00;10456786;28;20242;-74
2023/04/05 23:07:28;;;;;;;3.80;2.43;;;;;;;-2.56;100.00;96888.56;10455893;28;20246;-74
2023/04/05 23:12:28;;;;;;;4.80;2.53;;;;;;;-2.54;100.00;96891.88;10456317;28;20279;-75
2023/04/05 23:17:29;;;;;;;2.80;2.30;;;;;;;-2.62;100.00;96888.84;10437884;28;20224;-75
2023/04/05 23:22:29;;;;;;;3.50;2.23;;;;;;;-2.71;100.00;96887.53;10455900;28;20187;-75
2023/04/05 23:27:30;;;;;;;3.03;2.30;;;;;;;-2.70;100.00;96876.34;10455565;28;20270;-74
2023/04/05 23:32:30;;;;;;;4.23;2.43;;;;;;;-2.70;100.00;96881.47;10454859;28;20196;-74
2023/04/05 23:37:31;;;;;;;3.87;2.80;;;;;;;-2.74;100.00;96879.13;10455279;28;20246;-74